Time;durP1;ratioP1;P1;durP2;ratioP2;P2;SDS_P1;SDS_P2;PMS_P1;PMS_P2;Temp;Humidity;BMP_temperature;BMP_pressure;BME280_temperature;BME280_humidity;BME280_pressure;Samples;Min_cycle;Max_cycle;Signal;HPM_P1;HPM_P2
2022/02/13 00:01:35;;;;;;;0.70;0.70;;;20.30;38.40;;;;;;5111101;28;20483;-73
2022/02/13 00:04:01;;;;;;;0.50;0.50;;;20.30;38.40;;;;;;5112802;28;20491;-74
2022/02/13 00:06:27;;;;;;;0.70;0.63;;;20.30;38.40;;;;;;5112811;28;20047;-74
2022/02/13 00:08:53;;;;;;;1.35;0.70;;;20.30;38.40;;;;;;5112865;28;20127;-73
2022/02/13 00:11:19;;;;;;;0.60;0.60;;;20.30;38.80;;;;;;5113463;28;20055;-73
2022/02/13 00:13:45;;;;;;;0.60;0.60;;;20.30;38.50;;;;;;5116301;28;20043;-73
2022/02/13 00:16:11;;;;;;;0.82;0.75;;;20.30;38.40;;;;;;5116231;28;20054;-73
2022/02/13 00:18:36;;;;;;;0.73;0.63;;;20.30;38.40;;;;;;5116014;28;20052;-73
2022/02/13 00:21:02;;;;;;;0.57;0.50;;;20.30;38.50;;;;;;5116098;28;20043;-73
2022/02/13 00:23:28;;;;;;;0.95;0.80;;;20.30;38.50;;;;;;5116057;28;20044;-74
2022/02/13 00:25:53;;;;;;;0.70;0.70;;;20.30;38.40;;;;;;5116375;28;20479;-73
2022/02/13 00:28:19;;;;;;;0.65;0.65;;;20.30;38.40;;;;;;5115798;28;20527;-73
2022/02/13 00:30:46;;;;;;;0.73;0.60;;;20.30;38.50;;;;;;5116470;28;20929;-73
2022/02/13 00:33:16;;;;;;;0.60;0.60;;;20.30;38.40;;;;;;5115908;28;20047;-73
2022/02/13 00:35:41;;;;;;;0.50;0.50;;;20.30;38.50;;;;;;5115989;28;20484;-73
2022/02/13 00:38:08;;;;;;;0.60;0.60;;;20.30;38.40;;;;;;5097745;28;20050;-73
2022/02/13 00:40:35;;;;;;;0.73;0.70;;;20.30;38.40;;;;;;5115997;28;20136;-73
2022/02/13 00:43:00;;;;;;;0.73;0.70;;;20.30;38.40;;;;;;5115749;28;20052;-73
2022/02/13 00:45:26;;;;;;;0.60;0.60;;;20.30;38.40;;;;;;5115731;28;20567;-73
2022/02/13 00:47:52;;;;;;;0.68;0.68;;;20.30;38.40;;;;;;5115871;28;20425;-73
2022/02/13 00:50:18;;;;;;;0.52;0.52;;;20.30;38.40;;;;;;5115867;28;20073;-73
2022/02/13 00:52:44;;;;;;;0.70;0.70;;;20.30;38.40;;;;;;5097422;28;20074;-73
2022/02/13 00:55:09;;;;;;;0.50;0.50;;;20.30;38.40;;;;;;5097170;28;20429;-73
2022/02/13 00:57:35;;;;;;;0.60;0.60;;;20.30;38.40;;;;;;5096640;28;20483;-73
2022/02/13 01:00:01;;;;;;;0.55;0.55;;;20.30;38.40;;;;;;5095847;28;20048;-73
2022/02/13 01:02:26;;;;;;;0.50;0.50;;;20.30;38.50;;;;;;5115505;28;20067;-73
2022/02/13 01:04:54;;;;;;;0.60;0.60;;;20.30;38.50;;;;;;5115522;28;20057;-73
2022/02/13 01:07:19;;;;;;;0.85;0.65;;;20.30;38.40;;;;;;5115212;28;20047;-74
2022/02/13 01:09:45;;;;;;;0.93;0.70;;;20.30;38.40;;;;;;5114447;28;20075;-73
2022/02/13 01:12:10;;;;;;;0.65;0.60;;;20.30;38.40;;;;;;5115247;28;20048;-73
2022/02/13 01:14:36;;;;;;;0.60;0.60;;;20.30;38.40;;;;;;5115339;28;20048;-73
2022/02/13 01:17:01;;;;;;;0.73;0.60;;;20.30;38.40;;;;;;5115226;28;20044;-73
2022/02/13 01:19:29;;;;;;;0.63;0.40;;;20.30;38.40;;;;;;5113387;28;20134;-74
2022/02/13 01:21:55;;;;;;;0.60;0.60;;;20.30;38.40;;;;;;5114628;28;20537;-73
2022/02/13 01:24:20;;;;;;;0.60;0.60;;;20.30;38.40;;;;;;5115132;28;20047;-74
2022/02/13 01:26:46;;;;;;;0.70;0.70;;;20.30;38.40;;;;;;5115217;28;20055;-73
2022/02/13 01:29:11;;;;;;;0.50;0.50;;;20.30;38.40;;;;;;5115205;28;20074;-73
2022/02/13 01:31:39;;;;;;;0.90;0.70;;;20.30;38.40;;;;;;5115009;28;20050;-73
2022/02/13 01:34:05;;;;;;;0.68;0.65;;;20.30;38.40;;;;;;5114980;28;20040;-73
2022/02/13 01:36:30;;;;;;;0.68;0.60;;;20.30;38.40;;;;;;5114957;28;20052;-74
2022/02/13 01:38:56;;;;;;;0.60;0.60;;;20.30;38.90;;;;;;5096379;28;20408;-73
2022/02/13 01:41:22;;;;;;;0.60;0.60;;;20.30;38.40;;;;;;5112319;28;20048;-74
2022/02/13 01:43:47;;;;;;;0.55;0.55;;;20.30;38.40;;;;;;5114910;28;20058;-74
2022/02/13 01:46:13;;;;;;;0.70;0.68;;;20.30;38.40;;;;;;5114833;28;20043;-74
2022/02/13 01:48:38;;;;;;;0.68;0.68;;;20.30;38.40;;;;;;5114779;28;20134;-74
2022/02/13 01:51:04;;;;;;;0.60;0.60;;;20.30;38.50;;;;;;5114763;28;20051;-73
2022/02/13 01:53:30;;;;;;;0.93;0.70;;;20.30;38.40;;;;;;5113314;28;20047;-73
2022/02/13 01:55:56;;;;;;;1.02;0.60;;;20.30;38.40;;;;;;5096293;28;20518;-73
2022/02/13 01:58:22;;;;;;;0.60;0.60;;;20.30;38.40;;;;;;5114480;28;20051;-73
2022/02/13 02:00:47;;;;;;;0.65;0.60;;;20.30;38.40;;;;;;5096216;28;20047;-74
2022/02/13 02:03:14;;;;;;;0.80;0.65;;;20.30;38.40;;;;;;5114551;28;20063;-74
2022/02/13 02:05:42;;;;;;;0.50;0.50;;;20.30;38.40;;;;;;5114400;28;20048;-74
2022/02/13 02:08:09;;;;;;;1.42;0.60;;;20.30;38.40;;;;;;5114421;28;20083;-73
2022/02/13 02:10:35;;;;;;;0.55;0.55;;;20.30;38.40;;;;;;5111186;28;20113;-73
2022/02/13 02:13:01;;;;;;;0.60;0.55;;;20.30;38.40;;;;;;5114336;28;20048;-74
2022/02/13 02:15:28;;;;;;;0.77;0.65;;;20.30;38.40;;;;;;5114268;28;20052;-73
2022/02/13 02:17:54;;;;;;;0.70;0.70;;;20.30;38.40;;;;;;5114056;28;20109;-73
2022/02/13 02:20:20;;;;;;;0.65;0.60;;;20.20;38.40;;;;;;5113963;28;20052;-73
2022/02/13 02:22:47;;;;;;;1.33;0.80;;;20.30;38.40;;;;;;5095916;28;20043;-73
2022/02/13 02:25:13;;;;;;;0.77;0.70;;;20.30;38.40;;;;;;5094497;28;20411;-74
2022/02/13 02:27:38;;;;;;;0.63;0.60;;;20.30;38.40;;;;;;5114162;28;20052;-73
2022/02/13 02:30:05;;;;;;;0.55;0.55;;;20.30;38.40;;;;;;5113832;28;20058;-73
2022/02/13 02:32:30;;;;;;;0.93;0.73;;;20.30;38.40;;;;;;5095698;28;20088;-74
2022/02/13 02:34:56;;;;;;;0.75;0.70;;;20.30;38.40;;;;;;5113990;28;20056;-73
2022/02/13 02:37:21;;;;;;;0.82;0.73;;;20.30;38.40;;;;;;5112759;28;20087;-74
2022/02/13 02:39:47;;;;;;;0.70;0.50;;;20.30;38.40;;;;;;5113875;28;20043;-73
2022/02/13 02:42:13;;;;;;;0.60;0.60;;;20.20;38.40;;;;;;5113980;28;20051;-73
2022/02/13 02:44:40;;;;;;;0.80;0.60;;;20.20;38.40;;;;;;5112527;28;20094;-73
2022/02/13 02:47:05;;;;;;;0.60;0.60;;;20.20;38.40;;;;;;5113851;28;20043;-73
2022/02/13 02:49:31;;;;;;;0.55;0.55;;;20.30;38.40;;;;;;5112528;28;20058;-73
2022/02/13 02:51:56;;;;;;;0.82;0.70;;;20.30;38.40;;;;;;5114314;28;20181;-74
2022/02/13 02:54:22;;;;;;;0.45;0.45;;;20.30;38.40;;;;;;5113661;28;20061;-73
2022/02/13 02:56:47;;;;;;;0.50;0.50;;;20.30;38.40;;;;;;5112814;28;20044;-74
2022/02/13 02:59:13;;;;;;;0.73;0.60;;;20.30;38.40;;;;;;5113738;28;20043;-74
2022/02/13 03:01:39;;;;;;;0.65;0.65;;;20.20;38.40;;;;;;5113559;28;20143;-73
2022/02/13 03:04:04;;;;;;;0.63;0.60;;;20.20;38.30;;;;;;5113533;28;20043;-73
2022/02/13 03:06:30;;;;;;;0.60;0.60;;;20.30;38.40;;;;;;5113585;28;20081;-73
2022/02/13 03:08:55;;;;;;;0.60;0.60;;;20.30;38.40;;;;;;5095077;28;20479;-74
2022/02/13 03:11:21;;;;;;;0.77;0.70;;;20.30;38.40;;;;;;5095369;28;20379;-73
2022/02/13 03:13:46;;;;;;;1.30;0.80;;;20.30;38.40;;;;;;5093437;28;20457;-74
2022/02/13 03:16:12;;;;;;;0.50;0.50;;;20.20;38.30;;;;;;5095335;28;20475;-74
2022/02/13 03:18:38;;;;;;;1.35;0.82;;;20.20;38.40;;;;;;5113130;28;20083;-73
2022/02/13 03:21:04;;;;;;;0.55;0.55;;;20.20;38.30;;;;;;5113133;28;20050;-73
2022/02/13 03:23:29;;;;;;;0.85;0.70;;;20.30;38.40;;;;;;5113590;28;20522;-73
2022/02/13 03:25:55;;;;;;;0.68;0.60;;;20.20;38.40;;;;;;5113293;28;20080;-73
2022/02/13 03:28:22;;;;;;;0.60;0.60;;;20.30;38.40;;;;;;5094874;28;20051;-74
2022/02/13 03:30:47;;;;;;;0.70;0.70;;;20.20;38.40;;;;;;5113181;28;20043;-74
2022/02/13 03:33:14;;;;;;;0.85;0.70;;;20.30;38.40;;;;;;5113171;28;20514;-73
2022/02/13 03:35:42;;;;;;;0.50;0.50;;;20.30;38.40;;;;;;5112091;28;20050;-73
2022/02/13 03:38:08;;;;;;;0.60;0.60;;;20.30;38.40;;;;;;5112943;28;20093;-73
2022/02/13 03:40:34;;;;;;;0.50;0.50;;;20.30;38.40;;;;;;5112799;28;20051;-74
2022/02/13 03:42:59;;;;;;;0.60;0.60;;;20.30;38.40;;;;;;5112414;28;20059;-73
2022/02/13 03:45:25;;;;;;;0.60;0.60;;;20.30;38.40;;;;;;5112801;28;20108;-73
2022/02/13 03:47:50;;;;;;;0.40;0.40;;;20.20;38.90;;;;;;5112487;28;20138;-73
2022/02/13 03:50:16;;;;;;;0.57;0.57;;;20.20;38.30;;;;;;5112655;28;20056;-74
2022/02/13 03:52:42;;;;;;;0.70;0.60;;;20.20;38.40;;;;;;5094702;28;20182;-73
2022/02/13 03:55:09;;;;;;;0.60;0.60;;;20.20;38.40;;;;;;5112881;28;20055;-73
2022/02/13 03:57:34;;;;;;;0.82;0.68;;;20.20;38.40;;;;;;5112826;28;20090;-74
2022/02/13 04:00:02;;;;;;;0.52;0.40;;;20.20;38.30;;;;;;5113361;28;20071;-73
2022/02/13 04:02:36;;;;;;;0.77;0.60;;;20.20;38.30;;;;;;5112814;28;20142;-73
2022/02/13 04:05:02;;;;;;;0.40;0.40;;;20.20;38.40;;;;;;5112879;28;20085;-73
2022/02/13 04:07:28;;;;;;;0.90;0.60;;;20.20;38.30;;;;;;5113019;28;20043;-74
2022/02/13 04:09:55;;;;;;;0.55;0.55;;;20.20;38.30;;;;;;5113041;28;20044;-73
2022/02/13 04:12:21;;;;;;;0.52;0.52;;;20.30;38.30;;;;;;5112961;28;20043;-73
2022/02/13 04:14:46;;;;;;;0.57;0.57;;;20.20;38.30;;;;;;5111376;28;20469;-73
2022/02/13 04:17:12;;;;;;;1.10;0.60;;;20.20;38.30;;;;;;5112558;28;20052;-74
2022/02/13 04:19:40;;;;;;;0.60;0.60;;;20.20;38.30;;;;;;5093746;28;20510;-74
2022/02/13 04:22:06;;;;;;;0.60;0.60;;;20.20;38.30;;;;;;5112649;28;20055;-73
2022/02/13 04:24:31;;;;;;;0.50;0.50;;;20.20;38.30;;;;;;5112588;28;20534;-74
2022/02/13 04:26:57;;;;;;;0.43;0.43;;;20.20;38.30;;;;;;5112473;28;20139;-74
2022/02/13 04:29:22;;;;;;;0.60;0.60;;;20.20;38.30;;;;;;5111011;28;20402;-73
2022/02/13 04:31:48;;;;;;;0.70;0.60;;;20.20;38.30;;;;;;5094064;28;20047;-73
2022/02/13 04:34:14;;;;;;;0.80;0.70;;;20.20;38.30;;;;;;5112410;28;20056;-74
2022/02/13 04:36:39;;;;;;;0.50;0.50;;;20.20;38.30;;;;;;5094360;28;20060;-73
2022/02/13 04:39:05;;;;;;;0.50;0.50;;;20.20;38.30;;;;;;5112136;28;20052;-73
2022/02/13 04:41:31;;;;;;;0.60;0.50;;;20.20;38.40;;;;;;5112473;28;20050;-73
2022/02/13 04:43:57;;;;;;;0.60;0.60;;;20.20;38.30;;;;;;5112290;28;20055;-73
2022/02/13 04:46:22;;;;;;;0.60;0.60;;;20.20;38.30;;;;;;5112441;28;20487;-73
2022/02/13 04:48:48;;;;;;;0.55;0.55;;;20.20;38.30;;;;;;5108995;28;20058;-73
2022/02/13 04:51:13;;;;;;;1.00;0.82;;;20.20;38.40;;;;;;5112499;28;20112;-73
2022/02/13 04:53:39;;;;;;;0.90;0.60;;;20.20;38.40;;;;;;5112455;28;20620;-73
2022/02/13 04:56:05;;;;;;;1.08;0.82;;;20.20;38.30;;;;;;5093791;28;20070;-73
2022/02/13 04:58:32;;;;;;;0.50;0.50;;;20.20;38.30;;;;;;5115902;28;20506;-73
2022/02/13 05:00:57;;;;;;;0.60;0.60;;;20.20;38.40;;;;;;5115436;28;20047;-73
2022/02/13 05:03:24;;;;;;;0.55;0.55;;;20.20;38.30;;;;;;5115581;28;20054;-73
2022/02/13 05:05:54;;;;;;;0.50;0.50;;;20.20;38.30;;;;;;5116002;28;20106;-73
2022/02/13 05:08:21;;;;;;;0.50;0.50;;;20.20;38.30;;;;;;5115764;28;20100;-73
2022/02/13 05:10:47;;;;;;;0.60;0.60;;;20.20;38.30;;;;;;5115436;28;20085;-73
2022/02/13 05:13:14;;;;;;;0.73;0.60;;;20.20;38.30;;;;;;5115215;28;20040;-73
2022/02/13 05:15:40;;;;;;;0.85;0.70;;;20.20;38.30;;;;;;5113802;28;20055;-73
2022/02/13 05:18:06;;;;;;;0.63;0.63;;;20.20;38.30;;;;;;5095080;28;20048;-73
2022/02/13 05:20:31;;;;;;;0.60;0.60;;;20.20;38.30;;;;;;5095980;28;20544;-73
2022/02/13 05:22:57;;;;;;;0.70;0.50;;;20.20;38.30;;;;;;5114910;28;20063;-73
2022/02/13 05:25:24;;;;;;;0.40;0.40;;;20.30;38.40;;;;;;5096511;28;20063;-73
2022/02/13 05:27:49;;;;;;;0.60;0.60;;;20.20;38.30;;;;;;5115012;28;20105;-73
2022/02/13 05:30:15;;;;;;;0.60;0.60;;;20.20;38.30;;;;;;5115085;28;20445;-74
2022/02/13 05:32:40;;;;;;;0.68;0.68;;;20.20;38.30;;;;;;5115350;28;20079;-73
2022/02/13 05:35:06;;;;;;;0.50;0.40;;;20.20;38.30;;;;;;5115071;28;20054;-73
2022/02/13 05:37:32;;;;;;;0.50;0.50;;;20.20;38.30;;;;;;5115337;28;20047;-74
2022/02/13 05:39:58;;;;;;;0.60;0.60;;;20.20;38.30;;;;;;5114471;28;20051;-73
2022/02/13 05:42:25;;;;;;;1.55;0.95;;;20.20;38.30;;;;;;5114953;28;20047;-74
2022/02/13 05:44:51;;;;;;;0.60;0.60;;;20.20;38.30;;;;;;5095255;28;20078;-74
2022/02/13 05:47:17;;;;;;;0.50;0.50;;;20.20;38.30;;;;;;5095147;28;20055;-74
2022/02/13 05:49:42;;;;;;;0.60;0.60;;;20.20;38.30;;;;;;5114758;28;20086;-73
2022/02/13 05:52:08;;;;;;;0.75;0.63;;;20.20;38.40;;;;;;5114691;28;20056;-73
2022/02/13 05:54:33;;;;;;;0.70;0.68;;;20.20;38.30;;;;;;5114761;28;20048;-73
2022/02/13 05:56:59;;;;;;;0.50;0.50;;;20.20;38.30;;;;;;5114669;28;20065;-73
2022/02/13 05:59:24;;;;;;;0.77;0.50;;;20.20;38.40;;;;;;5114657;28;20052;-74
2022/02/13 06:01:53;;;;;;;1.40;0.50;;;20.20;38.30;;;;;;5114440;28;20083;-74
2022/02/13 06:04:19;;;;;;;0.60;0.60;;;20.20;38.30;;;;;;5114570;28;20547;-74
2022/02/13 06:06:46;;;;;;;0.70;0.68;;;20.20;38.30;;;;;;5114057;28;20530;-73
2022/02/13 06:09:12;;;;;;;0.93;0.90;;;20.20;38.30;;;;;;5095337;28;20123;-73
2022/02/13 06:11:38;;;;;;;0.60;0.60;;;20.20;38.30;;;;;;5111787;28;20090;-73
2022/02/13 06:14:03;;;;;;;0.60;0.60;;;20.20;38.30;;;;;;5114970;28;20081;-74
2022/02/13 06:16:29;;;;;;;0.63;0.63;;;20.20;38.30;;;;;;5114285;28;20048;-73
2022/02/13 06:18:54;;;;;;;0.50;0.50;;;20.20;38.30;;;;;;5114429;28;20055;-73
2022/02/13 06:21:21;;;;;;;0.50;0.50;;;20.20;38.30;;;;;;5114165;28;20052;-74
2022/02/13 06:23:47;;;;;;;0.60;0.60;;;20.20;38.30;;;;;;5113256;28;20126;-73
2022/02/13 06:26:14;;;;;;;0.50;0.50;;;20.20;38.30;;;;;;5114089;28;20506;-74
2022/02/13 06:28:39;;;;;;;0.88;0.65;;;20.20;38.30;;;;;;5114315;28;20059;-73
2022/02/13 06:31:05;;;;;;;0.95;0.80;;;20.20;38.30;;;;;;5096139;28;20391;-73
2022/02/13 06:33:31;;;;;;;0.60;0.60;;;20.20;38.30;;;;;;5095141;28;20055;-74
2022/02/13 06:35:56;;;;;;;1.08;0.68;;;20.20;38.30;;;;;;5095648;28;20093;-73
2022/02/13 06:38:22;;;;;;;0.60;0.60;;;20.20;38.30;;;;;;5114218;28;20051;-74
2022/02/13 06:40:48;;;;;;;0.57;0.52;;;20.20;38.30;;;;;;5113916;28;20502;-74
2022/02/13 06:43:13;;;;;;;0.73;0.60;;;20.20;38.30;;;;;;5113929;28;20055;-73
2022/02/13 06:45:41;;;;;;;1.30;0.75;;;20.20;38.30;;;;;;5113857;28;20062;-73
2022/02/13 06:48:08;;;;;;;0.70;0.70;;;20.20;38.30;;;;;;5109584;28;20055;-73
2022/02/13 06:50:34;;;;;;;0.50;0.50;;;20.20;38.30;;;;;;5113611;28;20051;-73
2022/02/13 06:53:01;;;;;;;1.02;0.60;;;20.20;38.30;;;;;;5113744;28;20047;-73
2022/02/13 06:55:27;;;;;;;0.70;0.70;;;20.20;38.20;;;;;;5113558;28;20085;-74
2022/02/13 06:57:52;;;;;;;0.90;0.70;;;20.30;38.30;;;;;;5112579;28;20054;-74
2022/02/13 07:00:19;;;;;;;0.63;0.63;;;20.30;38.20;;;;;;5113318;28;20048;-74
2022/02/13 07:02:45;;;;;;;0.55;0.55;;;20.30;38.20;;;;;;5095377;28;20051;-73
2022/02/13 07:05:11;;;;;;;0.60;0.60;;;20.30;38.20;;;;;;5113565;28;20051;-73
2022/02/13 07:07:37;;;;;;;0.60;0.60;;;20.30;38.20;;;;;;5095175;28;20124;-73
2022/02/13 07:10:04;;;;;;;0.55;0.55;;;20.30;38.10;;;;;;5112246;28;20142;-73
2022/02/13 07:12:30;;;;;;;0.60;0.60;;;20.40;38.10;;;;;;5113450;28;20103;-73
2022/02/13 07:14:56;;;;;;;0.68;0.60;;;20.40;38.10;;;;;;5113430;28;20055;-74
2022/02/13 07:17:21;;;;;;;0.40;0.40;;;20.40;38.00;;;;;;5113074;28;20483;-73
2022/02/13 07:19:47;;;;;;;0.60;0.60;;;20.40;37.90;;;;;;5112497;28;20056;-73
2022/02/13 07:22:13;;;;;;;0.50;0.50;;;20.40;37.90;;;;;;5113616;28;20058;-73
2022/02/13 07:24:40;;;;;;;0.60;0.60;;;20.50;37.90;;;;;;5113348;28;20104;-73
2022/02/13 07:27:07;;;;;;;0.70;0.60;;;20.50;37.90;;;;;;5113536;28;20484;-73
2022/02/13 07:29:36;;;;;;;0.57;0.57;;;20.50;37.80;;;;;;5092998;28;20132;-73
2022/02/13 07:32:03;;;;;;;0.60;0.60;;;20.50;37.90;;;;;;5113170;28;20044;-74
2022/02/13 07:34:30;;;;;;;0.63;0.52;;;20.50;37.80;;;;;;5094495;28;20491;-73
2022/02/13 07:37:01;;;;;;;0.70;0.60;;;20.50;37.80;;;;;;5113179;28;20051;-73
2022/02/13 07:39:28;;;;;;;0.50;0.50;;;20.50;38.40;;;;;;5113116;28;20105;-74
2022/02/13 07:41:54;;;;;;;0.68;0.68;;;20.50;37.80;;;;;;5094986;28;20090;-73
2022/02/13 07:44:19;;;;;;;0.57;0.57;;;20.50;37.90;;;;;;5113008;28;20072;-73
2022/02/13 07:46:45;;;;;;;0.60;0.60;;;20.50;37.80;;;;;;5113296;28;20044;-73
2022/02/13 07:49:10;;;;;;;0.60;0.60;;;20.50;37.80;;;;;;5112801;28;20077;-73
2022/02/13 07:51:36;;;;;;;0.50;0.50;;;20.50;37.80;;;;;;5111701;28;20474;-73
2022/02/13 07:54:02;;;;;;;0.50;0.50;;;20.50;37.70;;;;;;5113162;28;20051;-73
2022/02/13 07:56:28;;;;;;;1.45;0.65;;;20.50;37.70;;;;;;5094507;28;20048;-73
2022/02/13 07:58:53;;;;;;;0.50;0.50;;;20.50;37.70;;;;;;5112779;28;20100;-73
2022/02/13 08:01:19;;;;;;;0.57;0.57;;;20.50;37.70;;;;;;5112736;28;20040;-74
2022/02/13 08:03:46;;;;;;;0.60;0.60;;;20.50;37.70;;;;;;5112850;28;20530;-73
2022/02/13 08:06:15;;;;;;;0.60;0.60;;;20.60;37.80;;;;;;5094450;28;20051;-74
2022/02/13 08:08:41;;;;;;;0.55;0.50;;;20.60;37.70;;;;;;5112562;28;20058;-73
2022/02/13 08:11:07;;;;;;;0.73;0.73;;;20.60;37.70;;;;;;5111464;28;20048;-73
2022/02/13 08:13:33;;;;;;;0.50;0.50;;;20.60;37.70;;;;;;5112675;28;20051;-73
2022/02/13 08:15:59;;;;;;;0.77;0.68;;;20.60;37.70;;;;;;5094162;28;20060;-73
2022/02/13 08:18:25;;;;;;;0.63;0.55;;;20.60;37.60;;;;;;5112520;28;20058;-73
2022/02/13 08:20:54;;;;;;;0.80;0.60;;;20.60;37.60;;;;;;5112492;28;20048;-73
2022/02/13 08:23:24;;;;;;;0.60;0.60;;;20.70;37.60;;;;;;5112499;28;20100;-73
2022/02/13 08:25:51;;;;;;;0.57;0.57;;;20.70;37.50;;;;;;5094330;28;20054;-74
2022/02/13 08:28:17;;;;;;;0.52;0.52;;;20.70;37.60;;;;;;5112501;28;20138;-73
2022/02/13 08:30:44;;;;;;;0.40;0.40;;;20.60;37.50;;;;;;5115110;28;20476;-73
2022/02/13 08:33:09;;;;;;;0.55;0.55;;;20.60;37.50;;;;;;5116262;28;20055;-73
2022/02/13 08:35:36;;;;;;;0.65;0.57;;;20.70;37.50;;;;;;5096963;28;20496;-73
2022/02/13 08:38:03;;;;;;;0.50;0.50;;;20.70;37.40;;;;;;5116137;28;20129;-74
2022/02/13 08:40:30;;;;;;;0.60;0.60;;;20.70;37.40;;;;;;5115302;28;20113;-73
2022/02/13 08:42:58;;;;;;;0.60;0.60;;;20.70;37.40;;;;;;5115866;28;20059;-73
2022/02/13 08:45:24;;;;;;;0.52;0.52;;;20.80;37.40;;;;;;5115301;28;20052;-73
2022/02/13 08:47:50;;;;;;;0.52;0.52;;;20.70;37.40;;;;;;5116125;28;20051;-73
2022/02/13 08:50:15;;;;;;;0.65;0.63;;;20.70;37.40;;;;;;5115700;28;20445;-73
2022/02/13 08:52:41;;;;;;;0.52;0.52;;;20.80;37.40;;;;;;5115639;28;20079;-73
2022/02/13 08:55:07;;;;;;;0.60;0.60;;;20.80;37.40;;;;;;5097651;28;20054;-73
2022/02/13 08:57:33;;;;;;;0.85;0.70;;;20.80;37.30;;;;;;5115543;28;20051;-74
2022/02/13 08:59:59;;;;;;;0.60;0.60;;;20.80;37.40;;;;;;5115520;28;20048;-73
2022/02/13 09:02:25;;;;;;;0.55;0.55;;;20.80;37.30;;;;;;5115834;28;20051;-73
2022/02/13 09:04:50;;;;;;;0.50;0.50;;;20.80;37.40;;;;;;5115602;28;20052;-73
2022/02/13 09:07:16;;;;;;;0.65;0.65;;;20.80;37.40;;;;;;5115660;28;20487;-73
2022/02/13 09:09:44;;;;;;;0.60;0.60;;;20.80;37.40;;;;;;5115421;28;20055;-74
2022/02/13 09:12:10;;;;;;;0.60;0.60;;;20.80;37.40;;;;;;5115410;28;20048;-73
2022/02/13 09:14:36;;;;;;;0.60;0.60;;;20.70;37.30;;;;;;5115459;28;20406;-73
2022/02/13 09:17:02;;;;;;;0.57;0.57;;;20.70;37.30;;;;;;5115344;28;20054;-74
2022/02/13 09:19:28;;;;;;;0.50;0.50;;;20.80;37.40;;;;;;5115138;28;20054;-73
2022/02/13 09:21:54;;;;;;;0.60;0.60;;;20.80;37.40;;;;;;5115094;28;20044;-73
2022/02/13 09:24:21;;;;;;;0.95;0.73;;;20.80;37.40;;;;;;5115159;28;20094;-73
2022/02/13 09:26:47;;;;;;;0.52;0.52;;;20.80;37.40;;;;;;5096959;28;20047;-73
2022/02/13 09:29:13;;;;;;;0.65;0.60;;;20.80;37.40;;;;;;5115009;28;20547;-73
2022/02/13 09:31:39;;;;;;;0.68;0.50;;;20.70;37.30;;;;;;5115211;28;20056;-73
2022/02/13 09:34:04;;;;;;;0.65;0.60;;;20.70;37.30;;;;;;5096575;28;20403;-73
2022/02/13 09:36:30;;;;;;;0.57;0.57;;;20.70;37.30;;;;;;5115019;28;20056;-73
2022/02/13 09:38:55;;;;;;;0.60;0.60;;;20.70;37.30;;;;;;5078128;28;20048;-73
2022/02/13 09:41:21;;;;;;;0.52;0.52;;;20.80;37.30;;;;;;5113982;28;20128;-73
2022/02/13 09:43:48;;;;;;;0.70;0.70;;;20.80;37.30;;;;;;5114814;28;20105;-74
2022/02/13 09:46:15;;;;;;;0.70;0.60;;;20.70;37.30;;;;;;5114886;28;20096;-73
2022/02/13 09:48:41;;;;;;;0.50;0.50;;;20.80;37.30;;;;;;5114741;28;20491;-73
2022/02/13 09:51:07;;;;;;;0.98;0.80;;;20.80;37.30;;;;;;5115086;28;20086;-73
2022/02/13 09:53:35;;;;;;;0.57;0.57;;;20.80;37.30;;;;;;5096706;28;20415;-73
2022/02/13 09:56:02;;;;;;;0.50;0.50;;;20.80;37.30;;;;;;5113314;28;20380;-73
2022/02/13 09:58:29;;;;;;;0.65;0.60;;;20.80;37.30;;;;;;5114977;28;20055;-74
2022/02/13 10:01:03;;;;;;;0.80;0.60;;;20.80;37.30;;;;;;5114930;28;20074;-73
2022/02/13 10:03:32;;;;;;;0.50;0.50;;;20.70;37.30;;;;;;5114700;28;20445;-73
2022/02/13 10:06:17;;;;;;;0.50;0.50;;;20.80;37.30;;;;;;5094359;28;20151;-73
2022/02/13 10:08:46;;;;;;;0.63;0.60;;;20.80;37.30;;;;;;5113766;28;20100;-73
2022/02/13 10:11:25;;;;;;;0.63;0.60;;;20.80;37.30;;;;;;5114732;28;20109;-73
2022/02/13 10:14:05;;;;;;;0.55;0.55;;;20.80;37.30;;;;;;5096143;28;20058;-73
2022/02/13 10:16:31;;;;;;;0.40;0.40;;;20.70;37.30;;;;;;5114232;28;20380;-73
2022/02/13 10:19:33;;;;;;;0.60;0.60;;;20.70;37.30;;;;;;5114432;28;20134;-73
2022/02/13 10:22:00;;;;;;;0.50;0.50;;;20.80;37.30;;;;;;5069570;28;20488;-73
2022/02/13 10:24:40;;;;;;;0.50;0.50;;;20.80;37.30;;;;;;5114239;28;20051;-73
2022/02/13 10:27:13;;;;;;;0.50;0.50;;;20.80;37.30;;;;;;5095965;28;20062;-73
2022/02/13 10:29:41;;;;;;;0.95;0.70;;;20.80;37.30;;;;;;5113997;28;20048;-73
2022/02/13 10:32:13;;;;;;;0.50;0.50;;;20.80;37.30;;;;;;5095922;28;20514;-73
2022/02/13 10:34:40;;;;;;;0.63;0.63;;;20.80;37.20;;;;;;5113990;28;20051;-73
2022/02/13 10:37:05;;;;;;;0.82;0.50;;;20.80;37.20;;;;;;5113989;28;20051;-73
2022/02/13 10:39:43;;;;;;;0.88;0.70;;;20.80;37.20;;;;;;5114075;28;20056;-73
2022/02/13 10:42:11;;;;;;;0.60;0.50;;;20.80;37.20;;;;;;5114247;28;20082;-73
2022/02/13 10:44:36;;;;;;;0.90;0.70;;;20.80;37.20;;;;;;5114141;28;20055;-73
2022/02/13 10:47:02;;;;;;;0.50;0.50;;;20.80;37.20;;;;;;5113933;28;20384;-73
2022/02/13 10:49:29;;;;;;;0.60;0.60;;;20.80;37.20;;;;;;5113646;28;20138;-73
2022/02/13 10:51:54;;;;;;;0.88;0.70;;;20.80;37.20;;;;;;5112427;28;20523;-73
2022/02/13 10:54:20;;;;;;;0.50;0.50;;;20.80;37.20;;;;;;5113731;28;20082;-73
2022/02/13 10:56:45;;;;;;;0.65;0.65;;;20.80;37.30;;;;;;5114607;28;20056;-73
2022/02/13 10:59:13;;;;;;;0.60;0.60;;;20.80;37.20;;;;;;5095347;28;20062;-73
2022/02/13 11:01:40;;;;;;;0.95;0.68;;;20.80;37.20;;;;;;5113630;28;20050;-73
2022/02/13 11:04:06;;;;;;;0.60;0.60;;;20.70;37.20;;;;;;5095313;28;20047;-73
2022/02/13 11:06:36;;;;;;;0.60;0.60;;;20.80;37.20;;;;;;5112312;28;20059;-73
2022/02/13 11:09:10;;;;;;;0.60;0.60;;;20.80;37.20;;;;;;5078271;28;20395;-74
2022/02/13 11:11:39;;;;;;;0.65;0.50;;;20.80;37.20;;;;;;5113538;28;20047;-74
2022/02/13 11:14:05;;;;;;;0.60;0.60;;;20.80;37.20;;;;;;5113556;28;20052;-73
2022/02/13 11:16:33;;;;;;;0.75;0.50;;;20.80;37.20;;;;;;5113355;28;20402;-73
2022/02/13 11:19:13;;;;;;;0.60;0.60;;;20.80;37.20;;;;;;5113080;28;20067;-73
2022/02/13 11:21:42;;;;;;;0.47;0.47;;;20.80;37.80;;;;;;5113315;28;20138;-73
2022/02/13 11:24:27;;;;;;;0.50;0.50;;;20.80;37.20;;;;;;5113348;28;20412;-73
2022/02/13 11:26:52;;;;;;;0.50;0.50;;;20.80;37.80;;;;;;5113617;28;20047;-73
2022/02/13 11:29:18;;;;;;;0.70;0.70;;;20.80;37.20;;;;;;5094701;28;20410;-73
2022/02/13 11:31:50;;;;;;;0.60;0.60;;;20.80;37.20;;;;;;5094927;28;20052;-73
2022/02/13 11:34:22;;;;;;;0.70;0.70;;;20.80;37.20;;;;;;5113290;28;20101;-73
2022/02/13 11:36:50;;;;;;;0.70;0.70;;;20.80;37.30;;;;;;5113537;28;20062;-74
2022/02/13 11:39:34;;;;;;;0.60;0.60;;;20.80;37.20;;;;;;5113261;28;20124;-73
2022/02/13 11:42:03;;;;;;;0.60;0.60;;;20.80;37.20;;;;;;5094955;28;20052;-73
2022/02/13 11:44:58;;;;;;;0.60;0.60;;;20.80;37.30;;;;;;5113049;28;20043;-73
2022/02/13 11:47:38;;;;;;;0.50;0.50;;;20.80;37.20;;;;;;5094498;28;20051;-73
2022/02/13 11:50:04;;;;;;;0.40;0.40;;;20.80;37.30;;;;;;5112066;28;20050;-74
2022/02/13 11:52:34;;;;;;;0.60;0.60;;;20.80;37.20;;;;;;5112978;28;20047;-73
2022/02/13 11:55:04;;;;;;;0.52;0.50;;;20.80;37.30;;;;;;5113024;28;20051;-74
2022/02/13 11:57:33;;;;;;;0.57;0.57;;;20.80;37.30;;;;;;5112808;28;20059;-74
2022/02/13 11:59:58;;;;;;;0.68;0.65;;;20.80;37.30;;;;;;5112773;28;20055;-73
2022/02/13 12:02:29;;;;;;;0.70;0.60;;;20.80;37.20;;;;;;5112933;28;20043;-74
2022/02/13 12:05:07;;;;;;;0.80;0.70;;;20.80;37.20;;;;;;5114478;28;20135;-73
2022/02/13 12:07:58;;;;;;;0.50;0.50;;;20.80;37.20;;;;;;5116733;28;20055;-73
2022/02/13 12:10:46;;;;;;;0.60;0.43;;;20.80;37.20;;;;;;5116474;28;20055;-73
2022/02/13 12:13:15;;;;;;;0.55;0.55;;;20.80;37.20;;;;;;5113251;28;20139;-73
2022/02/13 12:15:58;;;;;;;0.70;0.70;;;20.80;37.20;;;;;;5116442;28;20051;-73
2022/02/13 12:18:24;;;;;;;0.60;0.60;;;20.80;37.80;;;;;;5097427;28;20043;-74
2022/02/13 12:20:57;;;;;;;0.50;0.50;;;20.80;37.20;;;;;;5116092;28;20097;-73
2022/02/13 12:23:22;;;;;;;0.68;0.68;;;20.80;37.30;;;;;;5116143;28;20083;-73
2022/02/13 12:25:48;;;;;;;0.65;0.60;;;20.80;37.20;;;;;;5114813;28;20549;-73
2022/02/13 12:28:18;;;;;;;0.50;0.50;;;20.80;37.30;;;;;;5115866;28;20059;-73
2022/02/13 12:30:53;;;;;;;0.60;0.60;;;20.70;37.20;;;;;;5116458;28;20047;-73
2022/02/13 12:33:22;;;;;;;0.55;0.55;;;20.70;37.20;;;;;;5116043;28;20056;-73
2022/02/13 12:35:49;;;;;;;0.85;0.60;;;20.80;37.30;;;;;;5115922;28;20044;-73
2022/02/13 12:38:16;;;;;;;0.50;0.50;;;20.70;37.20;;;;;;5115842;28;20060;-74
2022/02/13 12:40:45;;;;;;;0.50;0.50;;;20.70;37.20;;;;;;5116098;28;20054;-73
2022/02/13 12:43:22;;;;;;;0.60;0.60;;;20.70;37.20;;;;;;5116175;28;20506;-73
2022/02/13 12:45:50;;;;;;;0.60;0.60;;;20.70;37.20;;;;;;5114583;28;20055;-73
2022/02/13 12:48:21;;;;;;;0.63;0.55;;;20.70;37.20;;;;;;5095755;28;20181;-73